createdAt,value
2023-11-30T00:00:43.094Z,55.30
2023-11-30T00:03:10.338Z,55.23
2023-11-30T00:05:37.622Z,55.33
2023-11-30T00:08:05.080Z,55.36
2023-11-30T00:10:32.057Z,55.32
2023-11-30T00:12:59.183Z,55.28
2023-11-30T00:15:26.514Z,55.42
2023-11-30T00:17:53.842Z,55.46
2023-11-30T00:20:20.929Z,55.54
2023-11-30T00:22:48.700Z,55.42
2023-11-30T00:25:16.039Z,55.61
2023-11-30T00:27:43.081Z,55.53
2023-11-30T00:30:11.231Z,55.50
2023-11-30T00:32:38.543Z,55.57
2023-11-30T00:35:06.298Z,55.73
2023-11-30T00:37:33.439Z,55.63
2023-11-30T00:40:00.604Z,55.64
2023-11-30T00:42:27.837Z,55.69
2023-11-30T00:44:55.126Z,55.57
2023-11-30T00:47:22.414Z,55.66
2023-11-30T00:49:49.502Z,55.73
2023-11-30T00:52:16.657Z,55.64
2023-11-30T00:54:43.745Z,55.54
2023-11-30T00:57:10.831Z,55.69
2023-11-30T00:59:38.098Z,55.71
2023-11-30T01:02:06.172Z,55.68
2023-11-30T01:04:33.499Z,55.91
2023-11-30T01:07:00.556Z,55.80
2023-11-30T01:09:27.708Z,55.72
2023-11-30T01:11:55.216Z,55.86
2023-11-30T01:14:23.497Z,55.89
2023-11-30T01:16:50.683Z,55.90
2023-11-30T01:19:18.456Z,55.85
2023-11-30T01:21:45.877Z,55.91
2023-11-30T01:24:13.269Z,55.84
2023-11-30T01:26:40.531Z,55.94
2023-11-30T01:29:07.640Z,55.91
2023-11-30T01:31:34.773Z,55.92
2023-11-30T01:34:02.243Z,55.93
2023-11-30T01:36:29.597Z,56.00
2023-11-30T01:38:56.918Z,56.04
2023-11-30T01:41:24.205Z,55.98
2023-11-30T01:43:51.315Z,55.98
2023-11-30T01:46:19.301Z,56.01
2023-11-30T01:48:48.180Z,56.06
2023-11-30T01:51:17.270Z,56.18
2023-11-30T01:53:45.226Z,56.18
2023-11-30T01:56:13.754Z,56.14
2023-11-30T01:58:41.484Z,56.33
2023-11-30T02:01:09.370Z,56.17
2023-11-30T02:03:38.736Z,56.20
2023-11-30T02:06:06.647Z,56.34
2023-11-30T02:08:33.724Z,56.18
2023-11-30T02:11:01.159Z,56.09
2023-11-30T02:13:28.586Z,56.22
2023-11-30T02:15:55.698Z,56.23
2023-11-30T02:18:23.181Z,56.25
2023-11-30T02:20:50.382Z,56.22
2023-11-30T02:23:17.685Z,56.30
2023-11-30T02:25:45.076Z,56.23
2023-11-30T02:28:19.659Z,56.30
2023-11-30T02:30:51.121Z,56.21
2023-11-30T02:33:18.443Z,56.39
2023-11-30T02:35:46.260Z,56.47
2023-11-30T02:38:13.384Z,56.34
2023-11-30T02:40:40.441Z,56.30
2023-11-30T02:43:07.686Z,56.33
2023-11-30T02:45:34.823Z,56.37
2023-11-30T02:48:02.382Z,56.29
2023-11-30T02:50:29.550Z,56.38
2023-11-30T02:52:56.697Z,56.36
2023-11-30T02:55:23.849Z,56.46
2023-11-30T02:57:51.612Z,56.44
2023-11-30T03:00:20.230Z,56.52
2023-11-30T03:02:50.486Z,56.46
2023-11-30T03:05:17.834Z,56.44
2023-11-30T03:07:45.458Z,56.53
2023-11-30T03:10:13.104Z,56.55
2023-11-30T03:12:40.210Z,56.43
2023-11-30T03:15:09.397Z,56.47
2023-11-30T03:17:36.816Z,56.49
2023-11-30T03:20:04.146Z,56.52
2023-11-30T03:22:31.431Z,56.57
2023-11-30T03:24:59.071Z,56.64
2023-11-30T03:27:26.624Z,56.55
2023-11-30T03:29:53.791Z,56.60
2023-11-30T03:32:22.066Z,56.51
2023-11-30T03:34:49.160Z,56.50
2023-11-30T03:37:16.367Z,56.43
2023-11-30T03:39:43.936Z,56.61
2023-11-30T03:42:11.032Z,56.66
2023-11-30T03:44:38.620Z,56.64
2023-11-30T03:47:05.732Z,56.60
2023-11-30T03:49:32.934Z,56.63
2023-11-30T03:52:00.201Z,56.55
2023-11-30T03:54:27.598Z,56.63
2023-11-30T03:56:54.880Z,56.77
2023-11-30T03:59:22.173Z,56.71
2023-11-30T04:01:49.799Z,56.62
2023-11-30T04:04:17.108Z,56.70
2023-11-30T04:06:45.130Z,56.65
2023-11-30T04:09:12.240Z,56.87
2023-11-30T04:11:39.314Z,56.73
2023-11-30T04:14:08.039Z,56.67
2023-11-30T04:16:36.096Z,56.71
2023-11-30T04:19:03.388Z,56.78
2023-11-30T04:21:31.352Z,56.74
2023-11-30T04:23:58.521Z,56.73
2023-11-30T04:26:27.149Z,56.72
2023-11-30T04:28:54.449Z,56.71
2023-11-30T04:31:21.847Z,56.77
2023-11-30T04:33:49.105Z,56.83
2023-11-30T04:36:16.641Z,56.88
2023-11-30T04:38:43.806Z,56.82
2023-11-30T04:41:10.966Z,56.85
2023-11-30T04:43:39.132Z,56.78
2023-11-30T04:46:06.480Z,56.86
2023-11-30T04:48:34.249Z,56.82
2023-11-30T04:51:01.840Z,56.83
2023-11-30T04:53:29.061Z,56.83
2023-11-30T04:55:56.215Z,56.99
2023-11-30T04:58:23.769Z,56.89
2023-11-30T05:00:51.637Z,56.97
2023-11-30T05:03:19.254Z,56.83
2023-11-30T05:05:46.972Z,56.97
2023-11-30T05:08:14.830Z,56.85
2023-11-30T05:10:42.723Z,57.00
2023-11-30T05:13:09.759Z,56.97
2023-11-30T05:15:39.698Z,57.01
2023-11-30T05:18:07.969Z,56.98
2023-11-30T05:20:35.312Z,57.11
2023-11-30T05:23:03.268Z,57.12
2023-11-30T05:25:31.330Z,57.03
2023-11-30T05:27:59.918Z,56.99
2023-11-30T05:30:29.141Z,57.02
2023-11-30T05:32:57.886Z,56.92
2023-11-30T05:35:25.137Z,57.11
2023-11-30T05:37:52.804Z,57.03
2023-11-30T05:40:21.017Z,56.98
2023-11-30T05:42:49.007Z,57.01
2023-11-30T05:45:16.596Z,57.14
2023-11-30T05:47:44.191Z,57.03
2023-11-30T05:50:11.444Z,57.08
2023-11-30T05:52:38.800Z,56.97
2023-11-30T05:55:09.068Z,57.08
2023-11-30T05:57:37.182Z,57.04
2023-11-30T06:00:07.613Z,57.15
2023-11-30T06:02:44.225Z,57.05
2023-11-30T06:05:12.035Z,57.00
2023-11-30T06:07:39.858Z,57.05
2023-11-30T06:10:11.644Z,57.09
2023-11-30T06:12:40.513Z,57.17
2023-11-30T06:15:08.280Z,57.07
2023-11-30T06:17:35.909Z,57.00
2023-11-30T06:20:08.132Z,57.02
2023-11-30T06:22:37.291Z,57.00
2023-11-30T06:25:06.072Z,57.08
2023-11-30T06:27:33.415Z,57.02
2023-11-30T06:30:00.986Z,57.00
2023-11-30T06:32:28.663Z,57.04
2023-11-30T06:34:56.473Z,56.98
2023-11-30T06:37:24.808Z,56.96
2023-11-30T06:39:53.141Z,57.04
2023-11-30T06:42:20.926Z,56.83
2023-11-30T06:44:49.568Z,56.69
2023-11-30T06:47:17.410Z,56.54
2023-11-30T06:49:46.865Z,56.41
2023-11-30T06:52:14.815Z,56.35
2023-11-30T06:54:42.261Z,56.15
2023-11-30T06:57:09.831Z,56.05
2023-11-30T06:59:37.495Z,55.88
2023-11-30T07:02:04.673Z,55.95
2023-11-30T07:04:31.854Z,55.78
2023-11-30T07:06:58.971Z,55.60
2023-11-30T07:09:26.095Z,55.69
2023-11-30T07:11:53.204Z,55.48
2023-11-30T07:14:20.186Z,55.36
2023-11-30T07:16:47.809Z,55.36
2023-11-30T07:19:15.273Z,55.26
2023-11-30T07:21:42.268Z,55.14
2023-11-30T07:24:11.518Z,55.15
2023-11-30T07:26:40.351Z,55.15
2023-11-30T07:29:07.465Z,54.99
2023-11-30T07:31:35.861Z,55.00
2023-11-30T07:34:04.301Z,54.91
2023-11-30T07:36:31.563Z,54.78
2023-11-30T07:38:58.791Z,54.95
2023-11-30T07:41:25.892Z,54.87
2023-11-30T07:43:53.066Z,54.66
2023-11-30T07:46:20.780Z,54.66
2023-11-30T07:48:47.839Z,54.63
2023-11-30T07:51:15.139Z,54.66
2023-11-30T07:53:42.349Z,54.57
2023-11-30T07:56:10.265Z,54.58
2023-11-30T07:58:37.756Z,54.36
2023-11-30T08:01:05.932Z,54.45
2023-11-30T08:03:33.632Z,54.47
2023-11-30T08:06:00.912Z,54.31
2023-11-30T08:08:28.216Z,54.29
2023-11-30T08:10:57.059Z,54.34
2023-11-30T08:13:26.568Z,54.28
2023-11-30T08:15:53.712Z,54.24
2023-11-30T08:18:25.774Z,54.20
2023-11-30T08:20:55.544Z,54.24
2023-11-30T08:23:23.582Z,54.17
2023-11-30T08:25:51.115Z,54.12
2023-11-30T08:28:18.544Z,54.01
2023-11-30T08:30:49.928Z,54.06
2023-11-30T08:33:17.111Z,54.18
2023-11-30T08:35:44.374Z,54.12
2023-11-30T08:38:11.633Z,54.17
2023-11-30T08:40:38.697Z,54.16
2023-11-30T08:43:06.310Z,54.20
2023-11-30T08:45:33.823Z,54.14
2023-11-30T08:48:00.910Z,54.10
2023-11-30T08:50:28.249Z,54.24
2023-11-30T08:52:55.390Z,54.01
2023-11-30T08:55:22.520Z,53.99
2023-11-30T08:57:50.022Z,54.06
2023-11-30T09:00:20.558Z,53.95
2023-11-30T09:02:48.074Z,53.99
2023-11-30T09:05:15.228Z,53.95
2023-11-30T09:07:42.366Z,53.87
2023-11-30T09:10:10.155Z,53.85
2023-11-30T09:12:37.721Z,53.80
2023-11-30T09:15:10.240Z,53.79
2023-11-30T09:17:37.737Z,53.74
2023-11-30T09:20:09.039Z,53.77
2023-11-30T09:22:36.654Z,53.76
2023-11-30T09:25:04.461Z,53.53
2023-11-30T09:27:31.857Z,53.70
2023-11-30T09:29:59.032Z,53.78
2023-11-30T09:32:26.182Z,53.68
2023-11-30T09:34:55.918Z,53.64
2023-11-30T09:37:23.531Z,53.59
2023-11-30T09:39:50.656Z,53.62
2023-11-30T09:42:18.107Z,53.66
2023-11-30T09:44:45.291Z,53.57
2023-11-30T09:47:12.816Z,53.57
2023-11-30T09:49:39.920Z,53.68
2023-11-30T09:52:07.948Z,53.57
2023-11-30T09:54:36.040Z,53.61
2023-11-30T09:57:06.070Z,53.55
2023-11-30T09:59:33.344Z,53.49
2023-11-30T10:02:04.493Z,53.48
2023-11-30T10:04:33.901Z,53.40
2023-11-30T10:07:00.935Z,53.41
2023-11-30T10:09:28.541Z,53.37
2023-11-30T10:11:56.079Z,53.42
2023-11-30T10:14:23.262Z,53.49
2023-11-30T10:16:50.512Z,53.32
2023-11-30T10:19:17.923Z,53.39
2023-11-30T10:21:45.140Z,53.50
2023-11-30T10:24:14.230Z,53.44
2023-11-30T10:26:44.698Z,53.37
2023-11-30T10:29:17.040Z,53.34
2023-11-30T10:31:45.213Z,53.29
2023-11-30T10:34:15.461Z,53.37
2023-11-30T10:36:44.748Z,53.36
2023-11-30T10:39:24.605Z,53.27
2023-11-30T10:41:56.162Z,53.32
2023-11-30T10:44:28.311Z,53.33
2023-11-30T10:46:59.948Z,53.27
2023-11-30T10:49:29.786Z,53.38
2023-11-30T10:52:02.039Z,53.39
2023-11-30T10:54:36.722Z,53.29
2023-11-30T10:57:04.737Z,53.34
2023-11-30T10:59:33.153Z,53.35
2023-11-30T11:02:01.435Z,53.31
2023-11-30T11:04:29.533Z,53.36
2023-11-30T11:07:14.106Z,53.26
2023-11-30T11:09:46.313Z,53.27
2023-11-30T11:12:27.556Z,53.29
2023-11-30T11:15:15.746Z,53.24
2023-11-30T11:17:51.300Z,53.24
2023-11-30T11:20:27.703Z,53.20
2023-11-30T11:23:06.585Z,53.20
2023-11-30T11:25:52.042Z,53.28
2023-11-30T11:28:20.286Z,53.15
2023-11-30T11:30:49.487Z,53.23
2023-11-30T11:33:18.520Z,53.25
2023-11-30T11:35:46.826Z,53.21
2023-11-30T11:38:14.168Z,53.25
2023-11-30T11:40:42.675Z,53.14
2023-11-30T11:43:10.411Z,53.18
2023-11-30T11:45:38.801Z,53.25
2023-11-30T11:48:06.440Z,53.35
2023-11-30T11:50:33.654Z,53.35
2023-11-30T11:53:02.048Z,53.27
2023-11-30T11:55:29.335Z,53.25
2023-11-30T11:57:57.225Z,53.42
2023-11-30T12:00:26.022Z,53.37
2023-11-30T12:03:04.225Z,53.41
2023-11-30T12:05:31.370Z,53.26
2023-11-30T12:08:01.012Z,53.35
2023-11-30T12:10:34.241Z,53.44
2023-11-30T12:13:02.963Z,53.35
2023-11-30T12:15:30.845Z,53.38
2023-11-30T12:17:58.288Z,53.39
2023-11-30T12:20:26.829Z,53.47
2023-11-30T12:22:54.481Z,53.47
2023-11-30T12:25:21.941Z,53.49
2023-11-30T12:27:49.332Z,53.33
2023-11-30T12:30:16.573Z,53.37
2023-11-30T12:32:43.884Z,53.37
2023-11-30T12:35:11.586Z,53.35
2023-11-30T12:37:39.408Z,53.42
2023-11-30T12:40:15.488Z,53.39
2023-11-30T12:42:46.176Z,53.41
2023-11-30T12:45:14.462Z,53.39
2023-11-30T12:47:42.791Z,53.42
2023-11-30T12:50:11.394Z,53.35
2023-11-30T12:52:38.738Z,53.49
2023-11-30T12:55:06.717Z,53.39
2023-11-30T12:57:36.246Z,53.33
2023-11-30T13:00:11.020Z,53.37
2023-11-30T13:02:38.620Z,53.42
2023-11-30T13:05:06.002Z,53.50
2023-11-30T13:07:33.192Z,53.48
2023-11-30T13:10:00.610Z,53.49
2023-11-30T13:12:28.085Z,53.41
2023-11-30T13:14:57.860Z,53.49
2023-11-30T13:17:24.960Z,53.37
2023-11-30T13:19:52.018Z,53.46
2023-11-30T13:22:20.271Z,53.48
2023-11-30T13:24:48.333Z,53.44
2023-11-30T13:27:15.535Z,53.50
2023-11-30T13:29:42.725Z,53.48
2023-11-30T13:34:39.105Z,53.50
2023-11-30T13:37:06.296Z,53.59
2023-11-30T13:39:34.029Z,53.68
2023-11-30T13:42:01.187Z,53.51
2023-11-30T13:44:29.378Z,53.57
2023-11-30T13:46:56.819Z,53.64
2023-11-30T13:49:25.413Z,53.48
2023-11-30T13:51:52.547Z,53.54
2023-11-30T13:54:19.724Z,53.57
2023-11-30T13:56:47.445Z,53.52
2023-11-30T13:59:14.712Z,53.45
2023-11-30T14:01:42.082Z,53.53
2023-11-30T14:04:09.769Z,53.57
2023-11-30T14:06:38.061Z,53.52
2023-11-30T14:09:09.052Z,53.41
2023-11-30T14:11:36.414Z,53.50
2023-11-30T14:14:06.625Z,53.52
2023-11-30T14:16:33.915Z,53.42
2023-11-30T14:19:02.025Z,53.49
2023-11-30T14:21:29.490Z,53.45
2023-11-30T14:24:00.290Z,53.49
2023-11-30T14:26:28.844Z,53.41
2023-11-30T14:28:56.502Z,53.53
2023-11-30T14:31:25.136Z,53.57
2023-11-30T14:33:53.739Z,53.51
2023-11-30T14:36:21.979Z,53.52
2023-11-30T14:38:50.324Z,53.63
2023-11-30T14:41:17.901Z,53.56
2023-11-30T14:43:45.100Z,53.55
2023-11-30T14:46:12.718Z,53.55
2023-11-30T14:48:43.751Z,53.54
2023-11-30T14:51:12.922Z,53.48
2023-11-30T14:53:40.702Z,53.48
2023-11-30T14:56:09.524Z,53.46
2023-11-30T14:58:36.768Z,53.54
2023-11-30T15:01:04.480Z,53.49
2023-11-30T15:03:33.160Z,53.63
2023-11-30T15:06:00.539Z,53.52
2023-11-30T15:08:28.870Z,53.47
2023-11-30T15:10:56.458Z,53.53
2023-11-30T15:13:24.505Z,53.62
2023-11-30T15:15:51.787Z,53.55
2023-11-30T15:18:20.183Z,53.70
2023-11-30T15:20:47.917Z,53.67
2023-11-30T15:23:14.906Z,53.60
2023-11-30T15:25:42.202Z,53.57
2023-11-30T15:28:12.263Z,53.58
2023-11-30T15:30:39.748Z,53.64
2023-11-30T15:33:09.618Z,53.64
2023-11-30T15:35:36.913Z,53.65
2023-11-30T15:38:04.994Z,53.67
2023-11-30T15:40:32.102Z,53.56
2023-11-30T15:42:59.686Z,53.70
2023-11-30T15:45:28.712Z,53.63
2023-11-30T15:47:55.969Z,53.56
2023-11-30T15:50:25.855Z,53.54
2023-11-30T15:52:53.023Z,53.64
2023-11-30T15:55:20.059Z,53.45
2023-11-30T15:57:49.904Z,53.59
2023-11-30T16:00:18.429Z,53.53
2023-11-30T16:02:48.522Z,53.44
2023-11-30T16:05:19.283Z,53.49
2023-11-30T16:07:46.420Z,53.44
2023-11-30T16:10:14.623Z,53.36
2023-11-30T16:12:41.748Z,53.34
2023-11-30T16:15:11.962Z,53.37
2023-11-30T16:17:39.710Z,53.35
2023-11-30T16:20:11.769Z,53.26
2023-11-30T16:22:39.924Z,53.34
2023-11-30T16:25:08.025Z,53.29
2023-11-30T16:27:35.076Z,53.25
2023-11-30T16:30:02.796Z,53.19
2023-11-30T16:32:30.020Z,53.24
2023-11-30T16:35:01.288Z,53.22
2023-11-30T16:37:28.708Z,53.15
2023-11-30T16:39:56.284Z,53.19
2023-11-30T16:42:23.629Z,53.28
2023-11-30T16:44:51.119Z,53.32
2023-11-30T16:47:21.653Z,53.26
2023-11-30T16:49:48.633Z,53.22
2023-11-30T16:52:16.033Z,53.25
2023-11-30T16:54:43.936Z,53.14
2023-11-30T16:57:11.029Z,53.32
2023-11-30T16:59:39.113Z,53.31
2023-11-30T17:02:06.952Z,53.31
2023-11-30T17:04:34.794Z,53.46
2023-11-30T17:07:02.463Z,53.40
2023-11-30T17:09:30.478Z,53.45
2023-11-30T17:11:57.577Z,53.48
2023-11-30T17:14:24.622Z,53.45
2023-11-30T17:16:51.911Z,53.45
2023-11-30T17:19:19.028Z,53.34
2023-11-30T17:21:50.182Z,53.33
2023-11-30T17:24:18.637Z,53.23
2023-11-30T17:26:46.054Z,53.36
2023-11-30T17:29:14.339Z,53.38
2023-11-30T17:31:41.413Z,53.38
2023-11-30T17:34:09.007Z,53.31
2023-11-30T17:36:36.305Z,53.32
2023-11-30T17:39:03.583Z,53.44
2023-11-30T17:41:30.619Z,53.43
2023-11-30T17:43:58.154Z,53.47
2023-11-30T17:46:25.308Z,53.44
2023-11-30T17:48:52.657Z,53.40
2023-11-30T17:51:19.862Z,53.43
2023-11-30T17:53:47.894Z,53.56
2023-11-30T17:56:15.194Z,53.48
2023-11-30T17:58:43.248Z,53.41
2023-11-30T18:01:10.454Z,53.32
2023-11-30T18:03:37.774Z,53.41
2023-11-30T18:06:05.753Z,53.45
2023-11-30T18:08:33.329Z,53.36
2023-11-30T18:11:00.834Z,53.36
2023-11-30T18:13:27.897Z,53.36
2023-11-30T18:15:56.299Z,53.13
2023-11-30T18:18:24.018Z,53.40
2023-11-30T18:20:51.175Z,53.25
2023-11-30T18:23:18.238Z,53.29
2023-11-30T18:25:45.717Z,53.20
2023-11-30T18:28:13.039Z,53.35
2023-11-30T18:30:40.202Z,53.34
2023-11-30T18:33:09.309Z,53.31
2023-11-30T18:35:36.503Z,53.26
2023-11-30T18:38:05.102Z,53.31
2023-11-30T18:40:32.207Z,53.29
2023-11-30T18:42:59.469Z,53.27
2023-11-30T18:45:27.871Z,53.23
2023-11-30T18:47:55.714Z,53.20
2023-11-30T18:50:22.824Z,53.25
2023-11-30T18:52:50.646Z,53.21
2023-11-30T18:55:21.265Z,53.20
2023-11-30T18:57:48.881Z,53.18
2023-11-30T19:00:16.615Z,53.19
2023-11-30T19:02:43.759Z,53.22
2023-11-30T19:05:11.160Z,53.23
2023-11-30T19:07:38.588Z,53.25
2023-11-30T19:10:06.246Z,53.22
2023-11-30T19:12:33.385Z,53.17
2023-11-30T19:15:00.520Z,53.26
2023-11-30T19:17:27.824Z,53.16
2023-11-30T19:19:54.807Z,53.30
2023-11-30T19:22:22.894Z,53.17
2023-11-30T19:24:49.980Z,53.19
2023-11-30T19:27:17.323Z,53.19
2023-11-30T19:29:47.230Z,53.11
2023-11-30T19:32:14.978Z,53.11
2023-11-30T19:34:42.582Z,53.25
2023-11-30T19:37:10.094Z,53.21
2023-11-30T19:39:37.927Z,53.15
2023-11-30T19:42:05.569Z,53.15
2023-11-30T19:44:33.971Z,53.20
2023-11-30T19:47:03.049Z,53.29
2023-11-30T19:49:30.521Z,53.24
2023-11-30T19:51:58.189Z,53.24
2023-11-30T19:54:26.819Z,53.21
2023-11-30T19:56:54.001Z,53.21
2023-11-30T19:59:21.707Z,53.27
2023-11-30T20:01:48.826Z,53.24
2023-11-30T20:04:16.831Z,53.23
2023-11-30T20:06:44.505Z,53.26
2023-11-30T20:09:13.001Z,53.38
2023-11-30T20:11:40.053Z,53.56
2023-11-30T20:14:08.840Z,53.64
2023-11-30T20:16:43.591Z,53.77
2023-11-30T20:19:11.336Z,53.93
2023-11-30T20:21:38.941Z,54.00
2023-11-30T20:24:07.013Z,53.95
2023-11-30T20:26:34.197Z,54.13
2023-11-30T20:29:01.290Z,54.34
2023-11-30T20:31:28.408Z,54.50
2023-11-30T20:33:55.984Z,54.67
2023-11-30T20:36:23.399Z,54.62
2023-11-30T20:38:50.921Z,54.62
2023-11-30T20:41:18.690Z,54.69
2023-11-30T20:43:46.200Z,54.69
2023-11-30T20:46:14.528Z,54.79
2023-11-30T20:48:42.010Z,54.92
2023-11-30T20:51:10.380Z,55.03
2023-11-30T20:53:37.454Z,55.02
2023-11-30T20:56:04.997Z,54.96
2023-11-30T20:58:32.250Z,55.06
2023-11-30T21:00:59.523Z,55.16
2023-11-30T21:03:27.892Z,55.25
2023-11-30T21:05:55.030Z,55.19
2023-11-30T21:08:22.378Z,55.25
2023-11-30T21:10:49.642Z,55.47
2023-11-30T21:13:18.479Z,55.36
2023-11-30T21:15:45.612Z,55.36
2023-11-30T21:18:12.807Z,55.42
2023-11-30T21:20:39.881Z,55.58
2023-11-30T21:23:06.936Z,55.50
2023-11-30T21:25:33.951Z,55.58
2023-11-30T21:28:01.071Z,55.54
2023-11-30T21:30:28.205Z,55.64
2023-11-30T21:32:55.740Z,55.64
2023-11-30T21:35:22.764Z,55.66
2023-11-30T21:37:49.770Z,55.71
2023-11-30T21:40:16.984Z,55.83
2023-11-30T21:42:44.474Z,55.74
2023-11-30T21:45:11.863Z,55.74
2023-11-30T21:47:38.980Z,55.79
2023-11-30T21:50:17.683Z,55.86
2023-11-30T21:52:48.030Z,55.89
2023-11-30T21:55:18.787Z,55.92
2023-11-30T21:57:49.689Z,55.95
2023-11-30T22:00:17.460Z,56.03
2023-11-30T22:02:46.396Z,55.94
2023-11-30T22:05:23.530Z,55.95
2023-11-30T22:07:54.431Z,56.03
2023-11-30T22:10:22.520Z,56.02
2023-11-30T22:12:49.780Z,56.11
2023-11-30T22:15:16.812Z,56.10
2023-11-30T22:17:44.307Z,56.15
2023-11-30T22:20:12.047Z,56.14
2023-11-30T22:22:39.421Z,56.10
2023-11-30T22:25:06.895Z,56.07
2023-11-30T22:27:34.054Z,56.08
2023-11-30T22:30:01.094Z,56.13
2023-11-30T22:32:28.175Z,56.14
2023-11-30T22:34:55.486Z,56.16
2023-11-30T22:37:22.775Z,56.39
2023-11-30T22:39:49.892Z,56.43
2023-11-30T22:42:17.311Z,56.34
2023-11-30T22:44:44.658Z,56.30
2023-11-30T22:47:11.768Z,56.02
2023-11-30T22:49:39.031Z,55.87
2023-11-30T22:52:06.303Z,55.74
2023-11-30T22:54:33.994Z,55.67
2023-11-30T22:57:01.240Z,55.48
2023-11-30T22:59:28.986Z,55.49
2023-11-30T23:01:56.409Z,55.22
2023-11-30T23:04:23.796Z,55.28
2023-11-30T23:06:51.342Z,55.17
2023-11-30T23:09:18.647Z,55.05
2023-11-30T23:11:45.782Z,55.05
2023-11-30T23:14:12.960Z,54.92
2023-11-30T23:16:40.249Z,55.02
2023-11-30T23:19:08.962Z,54.78
2023-11-30T23:21:36.058Z,54.88
2023-11-30T23:24:03.394Z,54.79
2023-11-30T23:26:30.438Z,54.84
2023-11-30T23:28:57.536Z,54.70
2023-11-30T23:31:24.870Z,54.65
2023-11-30T23:33:52.278Z,54.78
2023-11-30T23:36:19.653Z,54.68
2023-11-30T23:38:47.062Z,54.67
2023-11-30T23:41:14.404Z,54.54
2023-11-30T23:43:41.511Z,54.67
2023-11-30T23:46:10.003Z,54.59
2023-11-30T23:48:37.191Z,54.56
2023-11-30T23:51:04.625Z,54.48
2023-11-30T23:53:32.088Z,54.52
2023-11-30T23:55:59.330Z,54.50
2023-11-30T23:58:26.475Z,54.53
